• Join FlightAware (Why Join?)
  • Login
  • US Flag 
04:17PM EDT


 

Airport Tracker/Info


-or-


 

Live Flight TrackerFlight Track Log ✈ SWA1202 ✈ 25-Apr-2013 ✈ KDAL - KABQ

Flight Track Log - Related Links

Times and Time Zones

All times are in EDT time to prevent confusion due to time zone crossing. See the SWA1202 flight status page for this flight to view local times or setup timezone preferences in your user account.

Time Position Orientation Groundspeed Altitude Reporting Facility
EDT Latitude Longitude Course Direction KTS MPH feet Rate Location/Type
01:26PM 32.8167 -96.8167 140° Southeast 181 208 2,800  Level Dallas / Fort Worth TRACON
01:27PM 32.7667 -96.7667 140° Southeast 237 273 4,900 1,080 Climbing Dallas / Fort Worth TRACON
01:28PM 32.7000 -96.7833 192° South 271 312 4,900 1,620 Level Dallas / Fort Worth TRACON
01:29PM 32.6500 -96.8333 220° Southwest 262 302 8,100 3,120 Climbing Dallas / Fort Worth TRACON
01:30PM 32.6667 -96.9167 283° West 274 315 10,600 1,620 Climbing Dallas / Fort Worth TRACON
01:31PM 32.7000 -97.0167 292° West 350 403 11,500 1,740 Climbing Dallas / Fort Worth TRACON
01:33PM 32.7519 -97.2331 286° West 368 423 16,300 2,280 Climbing Fort Worth Center
01:34PM 32.7833 -97.3739 285° West 368 423 18,700 2,040 Climbing Fort Worth Center
01:35PM 32.8083 -97.4828 285° West 374 430 20,400 1,800 Climbing Fort Worth Center
01:36PM 32.8394 -97.6236 285° West 379 436 22,300 1,740 Climbing Fort Worth Center
01:37PM 32.8664 -97.7497 284° West 396 456 23,900 1,440 Climbing Fort Worth Center
01:38PM 32.8658 -97.8883 270° West 409 471 25,200 1,500 Climbing Fort Worth Center
01:39PM 32.8653 -98.0194 270° West 409 471 26,900 1,920 Climbing Fort Worth Center
01:40PM 32.8625 -98.1481 269° West 399 459 29,100 2,100 Climbing Fort Worth Center
01:41PM 32.8617 -98.2717 270° West 381 438 31,200 1,560 Climbing Fort Worth Center
01:42PM 32.8608 -98.3878 270° West 361 415 32,300 1,200 Climbing Fort Worth Center
01:43PM 32.8578 -98.4992 268° West 361 415 33,600 840 Climbing Fort Worth Center
01:44PM 32.8567 -98.6153 269° West 349 402 34,000 180 Climbing Fort Worth Center
01:45PM 32.8556 -98.7339 269° West 349 402 34,000  Level Fort Worth Center
01:46PM 32.8522 -98.8478 268° West 349 402 34,000  Level Fort Worth Center
01:47PM 32.8508 -98.9664 269° West 349 402 34,000  Level Fort Worth Center
01:48PM 32.8494 -99.0850 269° West 354 407 34,000  Level Fort Worth Center
01:49PM 32.8478 -99.2011 269° West 354 407 34,000  Level Fort Worth Center
01:50PM 32.8458 -99.3225 269° West 359 413 34,000  Level Fort Worth Center
01:51PM 32.8419 -99.4386 268° West 359 413 34,000  Level Fort Worth Center
01:52PM 32.8400 -99.5572 269° West 365 420 34,000  Level Fort Worth Center
01:53PM 32.8672 -99.6692 286° West 357 411 34,000  Level Fort Worth Center
01:54PM 32.9111 -99.7842 294° West 362 417 34,000  Level Fort Worth Center
01:55PM 32.9531 -99.8842 297° West 372 428 34,000  Level Fort Worth Center
01:56PM 32.9925 -99.9942 293° West 372 428 34,000  Level Fort Worth Center
01:57PM 33.0339 -100.1069 294° West 372 428 34,000  Level Fort Worth Center
01:58PM 33.0775 -100.2172 295° West 377 434 34,000  Level Fort Worth Center
01:59PM 33.1208 -100.3303 295° West 377 434 34,000  Level Fort Worth Center
02:00PM 33.1619 -100.4408 294° West 377 434 34,000  Level Fort Worth Center
02:01PM 33.2053 -100.5542 295° West 377 434 34,000  Level Fort Worth Center
02:02PM 33.2461 -100.6697 293° West 377 434 34,000  Level Fort Worth Center
02:03PM 33.2892 -100.7806 295° West 377 434 34,000  Level Fort Worth Center
02:04PM 33.3297 -100.8917 294° West 377 434 34,000  Level Fort Worth Center
02:05PM 33.3725 -101.0028 295° West 377 434 34,000  Level Fort Worth Center
02:06PM 33.4131 -101.1164 293° West 377 434 34,000  Level Fort Worth Center
02:07PM 33.4558 -101.2278 295° West 377 434 34,000  Level Fort Worth Center
02:08PM 33.5019 -101.3542 294° West 377 434 34,000  Level Fort Worth Center
02:09PM 33.5419 -101.4681 293° West 378 435 34,000  Level Fort Worth Center
02:10PM 33.5864 -101.5822 295° West 378 435 34,000  Level Fort Worth Center
02:11PM 33.6264 -101.6914 294° West 372 428 34,000  Level Fort Worth Center
02:12PM 33.6683 -101.8083 293° West 372 428 34,000  Level Fort Worth Center
02:13PM 33.7144 -101.9231 296° West 372 428 34,000  Level Fort Worth Center
02:14PM 33.7903 -102.0144 315° West 378 435 34,000  Level Fort Worth Center
02:15PM 33.8703 -102.1061 316° Northwest 383 441 34,000  Level Fort Worth Center
02:17PM 34.0561 -102.3225 316° Northwest 398 458 34,000  Level Albuquerque Center
02:18PM 34.1358 -102.4139 317° Northwest 397 457 34,000  Level Albuquerque Center
02:19PM 34.2258 -102.5203 316° Northwest 395 455 34,000  Level Albuquerque Center
02:20PM 34.3053 -102.6142 316° Northwest 397 457 34,000  Level Albuquerque Center
02:21PM 34.3856 -102.7083 316° Northwest 399 459 34,000  Level Albuquerque Center
02:22PM 34.4653 -102.8028 316° Northwest 399 459 34,000  Level Albuquerque Center
02:24PM 34.5061 -102.9208 293° West 368 423 34,000  Level Albuquerque Center
02:25PM 34.5209 -103.0449 278° West  Level FlightAware Approximate
02:25PM 34.5211 -103.0453 278° West 366 421 34,000  Level Albuquerque Center
02:26PM 34.5378 -103.1906 278° West 369 425 34,000  Level Albuquerque Center
02:27PM 34.5531 -103.3142 279° West 368 423 34,000  Level Albuquerque Center
02:28PM 34.5683 -103.4378 279° West 367 422 34,000  Level Albuquerque Center
02:29PM 34.5817 -103.5617 277° West 367 422 34,000  Level Albuquerque Center
02:30PM 34.6086 -103.6844 285° West 372 428 34,000  Level Albuquerque Center
02:31PM 34.6383 -103.8047 287° West 369 425 34,000  Level Albuquerque Center
02:32PM 34.6678 -103.9258 286° West 370 426 34,000  Level Albuquerque Center
02:33PM 34.6978 -104.0456 287° West 368 423 34,000  Level Albuquerque Center
02:34PM 34.7317 -104.1861 286° West 367 422 34,000  Level Albuquerque Center
02:35PM 34.7608 -104.3058 287° West 365 420 34,000  Level Albuquerque Center
02:36PM 34.7894 -104.4261 286° West 365 420 34,000  Level Albuquerque Center
02:37PM 34.8097 -104.5469 282° West 364 419 34,000  Level Albuquerque Center
02:38PM 34.8231 -104.6692 278° West 361 415 34,000  Level Albuquerque Center
02:39PM 34.8358 -104.7908 277° West 360 414 34,000  Level Albuquerque Center
02:40PM 34.8478 -104.9117 277° West 357 411 34,000 -240 Level Albuquerque Center
02:41PM 34.8608 -105.0325 278° West 356 410 33,600 -1,380 Descending Albuquerque Center
02:42PM 34.8725 -105.1489 277° West 348 400 31,200 -2,460 Descending Albuquerque Center
02:43PM 34.8856 -105.2703 278° West 353 406 28,600 -2,520 Descending Albuquerque Center
02:44PM 34.8994 -105.4136 277° West 359 413 26,000 -2,280 Descending Albuquerque Center
02:45PM 34.9119 -105.5272 278° West 343 395 23,900 -1,980 Descending Albuquerque Center
02:46PM 34.9214 -105.6364 276° West 327 376 22,000 -2,100 Descending Albuquerque Center
02:47PM 34.9328 -105.7678 276° West 341 392 19,500 -2,100 Descending Albuquerque Center
02:48PM 34.9453 -105.8642 279° West 335 386 17,700 -1,920 Descending Albuquerque Center
02:49PM 34.9461 -105.9122 271° West 328 377 17,000 -2,040 Descending Albuquerque Center
02:49PM 34.9494 -105.9772 274° West 326 375 15,600 -2,100 Descending Albuquerque Center
02:50PM 34.9506 -106.0200 272° West 317 365 14,900 -1,560 Descending Albuquerque Center
02:50PM 34.9508 -106.0806 270° West 312 359 14,000 -1,620 Descending Albuquerque Center
02:51PM 34.9517 -106.1208 271° West 299 344 13,300 -1,800 Descending Albuquerque Center
02:51PM 34.9553 -106.1806 274° West 300 345 12,200 -1,740 Descending Albuquerque Center
02:52PM 34.9586 -106.2803 272° West 297 342 10,300 -1,320 Descending Albuquerque Center
02:53PM 34.9589 -106.3753 270° West 290 334 9,600 -540 Descending Albuquerque Center
02:54PM 34.9544 -106.4642 267° West 276 318 9,200 -960 Descending Albuquerque Center
02:55PM 34.9528 -106.5483 269° West 230 265 7,800 -1,020 Descending Albuquerque Center
02:56PM 34.9494 -106.6269 267° West 224 258 7,400 -600 Descending Albuquerque Center
02:57PM 34.9761 -106.6822 300° West 182 209 6,600 -780 Descending Albuquerque Center
02:58PM 35.0086 -106.6481 41° Northeast 146 168 5,900 -540 Descending Albuquerque Center
03:00PM 35.0458 -106.5986 47° Northeast 167 192 5,400 -420 Descending Albuquerque Center